Time;durP1;ratioP1;P1;durP2;ratioP2;P2;SDS_P1;SDS_P2;PMS_P1;PMS_P2;Temp;Humidity;BMP_temperature;BMP_pressure;BME280_temperature;BME280_humidity;BME280_pressure;Samples;Min_cycle;Max_cycle;Signal;HPM_P1;HPM_P2
2022/06/14 00:00:53;;;;;;;5.90;5.31;;;;;;;21.80;65.37;100270.53;456077;116;923305;-75
2022/06/14 00:00:54;;;;;;;5.76;5.31;;;;;;;21.81;65.47;100271.36;453105;116;922617;-74
2022/06/14 00:01:58;;;;;;;5.68;5.26;;;;;;;21.80;65.48;100267.76;455914;116;922622;-75
2022/06/14 00:03:01;;;;;;;5.91;5.16;;;;;;;21.83;65.51;100269.12;456108;116;922485;-75
2022/06/14 00:04:04;;;;;;;6.49;5.90;;;;;;;21.83;65.54;100274.68;456124;116;922859;-74
2022/06/14 00:05:07;;;;;;;13.64;6.19;;;;;;;21.86;65.57;100268.52;456092;116;922868;-74
2022/06/14 00:06:14;;;;;;;6.32;5.60;;;;;;;21.88;65.52;100274.61;456011;116;922535;-74
2022/06/14 00:07:17;;;;;;;6.39;5.76;;;;;;;21.88;65.44;100272.66;455828;116;930914;-76
2022/06/14 00:08:22;;;;;;;6.39;5.29;;;;;;;21.90;65.40;100270.40;456083;116;922702;-75
2022/06/14 00:09:25;;;;;;;6.88;5.89;;;;;;;21.90;65.33;100273.17;455905;116;923048;-75
2022/06/14 00:10:28;;;;;;;7.01;4.88;;;;;;;21.91;65.32;100265.67;456159;116;922524;-75
2022/06/14 00:11:35;;;;;;;7.06;5.44;;;;;;;21.91;65.30;100265.67;456558;116;922828;-75
2022/06/14 00:12:38;;;;;;;6.09;5.68;;;;;;;21.91;65.29;100263.73;457639;116;922905;-75
2022/06/14 00:13:41;;;;;;;6.66;5.91;;;;;;;21.92;65.32;100259.01;457786;116;922655;-75
2022/06/14 00:14:44;;;;;;;6.18;5.47;;;;;;;21.93;65.33;100264.27;457731;116;922570;-76
2022/06/14 00:15:48;;;;;;;8.58;5.79;;;;;;;21.94;65.31;100262.33;457745;116;930502;-75
2022/06/14 00:16:51;;;;;;;6.21;5.65;;;;;;;21.94;65.27;100260.38;465174;113;922546;-75
2022/06/14 00:17:54;;;;;;;6.18;5.58;;;;;;;21.94;65.27;100265.93;465406;114;930481;-75
2022/06/14 00:18:57;;;;;;;5.89;5.43;;;;;;;21.95;65.39;100266.75;465402;114;922568;-76
2022/06/14 00:20:00;;;;;;;6.09;5.34;;;;;;;21.97;65.46;100264.52;465456;114;922597;-76
2022/06/14 00:21:04;;;;;;;7.29;5.47;;;;;;;21.98;65.47;100263.41;465398;114;923097;-76
2022/06/14 00:22:08;;;;;;;6.94;6.20;;;;;;;22.00;65.49;100259.19;465338;113;922455;-76
2022/06/14 00:23:12;;;;;;;5.87;5.42;;;;;;;22.01;65.47;100263.63;465230;114;922843;-76
2022/06/14 00:24:16;;;;;;;6.54;5.94;;;;;;;22.04;65.46;100262.21;465405;114;922556;-75
2022/06/14 00:25:23;;;;;;;5.89;5.37;;;;;;;22.04;65.51;100263.05;465507;114;922721;-74
2022/06/14 00:26:26;;;;;;;6.59;5.44;;;;;;;22.06;65.37;100265.50;465264;114;922568;-74
2022/06/14 00:27:29;;;;;;;6.53;5.88;;;;;;;22.07;65.35;100266.33;465423;113;922523;-74
2022/06/14 00:28:34;;;;;;;5.99;5.48;;;;;;;22.06;65.30;100271.05;465393;114;922574;-75
2022/06/14 00:29:37;;;;;;;6.94;5.26;;;;;;;22.07;65.22;100274.66;464804;114;922906;-75
2022/06/14 00:30:42;;;;;;;5.13;4.66;;;;;;;22.04;65.14;100265.82;465456;114;922574;-74
2022/06/14 00:31:45;;;;;;;5.11;4.72;;;;;;;22.03;65.07;100266.11;465228;113;922585;-75
2022/06/14 00:32:49;;;;;;;5.07;4.64;;;;;;;22.01;65.09;100268.34;465426;114;922550;-75
2022/06/14 00:33:52;;;;;;;4.77;4.33;;;;;;;22.00;65.03;100269.47;465496;112;923022;-75
2022/06/14 00:34:56;;;;;;;5.28;4.89;;;;;;;21.98;64.98;100278.11;465950;114;923255;-74
2022/06/14 00:36:05;;;;;;;5.40;4.88;;;;;;;21.98;64.99;100272.56;466090;114;922999;-74
2022/06/14 00:37:16;;;;;;;5.23;4.29;;;;;;;21.97;64.97;100270.91;465880;114;922620;-74
2022/06/14 00:38:20;;;;;;;5.31;4.83;;;;;;;21.96;64.93;100268.41;465844;114;922752;-74
2022/06/14 00:39:23;;;;;;;4.80;4.40;;;;;;;21.95;64.95;100267.59;465882;114;922738;-73
2022/06/14 00:40:29;;;;;;;4.80;4.39;;;;;;;21.93;64.98;100269.83;464994;114;922840;-73
2022/06/14 00:41:44;;;;;;;8.29;4.79;;;;;;;21.93;65.02;100275.38;464868;114;922979;-73
2022/06/14 00:42:48;;;;;;;4.93;4.46;;;;;;;21.93;65.10;100274.55;464242;114;922547;-74
2022/06/14 00:43:51;;;;;;;5.11;4.30;;;;;;;21.93;65.11;100271.77;464919;114;922615;-73
2022/06/14 00:45:09;;;;;;;4.80;4.30;;;;;;;21.92;65.16;100268.16;465057;114;923024;-74
2022/06/14 00:46:23;;;;;;;6.89;4.93;;;;;;;21.92;65.18;100267.34;462196;114;922531;-74
2022/06/14 00:47:26;;;;;;;6.49;4.27;;;;;;;21.93;65.29;100269.83;464857;114;923297;-74
2022/06/14 00:48:32;;;;;;;5.12;4.74;;;;;;;21.94;65.43;100274.26;465043;114;922751;-74
2022/06/14 00:49:50;;;;;;;5.89;5.13;;;;;;;21.96;65.49;100276.74;464850;114;922894;-75
2022/06/14 00:51:19;;;;;;;5.43;4.86;;;;;;;21.98;65.46;100275.34;464041;114;922512;-74
2022/06/14 00:52:32;;;;;;;4.84;4.13;;;;;;;22.00;65.49;100275.84;462923;113;922536;-75
2022/06/14 00:53:46;;;;;;;5.36;4.74;;;;;;;22.03;65.46;100277.21;461698;114;922670;-74
2022/06/14 00:54:52;;;;;;;5.22;4.78;;;;;;;22.03;65.35;100278.05;459888;114;922628;-75
2022/06/14 00:56:05;;;;;;;6.29;4.49;;;;;;;22.03;65.23;100274.44;456951;113;922551;-74
2022/06/14 00:57:18;;;;;;;5.11;4.65;;;;;;;22.01;65.17;100277.50;456752;113;922569;-74
2022/06/14 00:58:28;;;;;;;5.44;4.99;;;;;;;22.00;65.16;100278.63;455865;114;922661;-75
2022/06/14 00:59:40;;;;;;;6.00;5.31;;;;;;;21.98;65.14;100272.56;464119;113;923570;-74
2022/06/14 01:01:02;;;;;;;5.88;4.93;;;;;;;21.97;65.14;100276.45;461563;114;922626;-75
2022/06/14 01:02:21;;;;;;;5.54;4.84;;;;;;;21.96;65.15;100279.52;463790;114;923322;-75
2022/06/14 01:03:27;;;;;;;5.97;5.14;;;;;;;21.94;65.31;100276.20;455320;116;923075;-74
2022/06/14 01:04:32;;;;;;;7.21;5.39;;;;;;;21.93;65.36;100274.55;456209;114;922733;-74
2022/06/14 01:07:18;;;;;;;5.88;5.34;;;;;;;21.91;65.47;100272.05;458592;114;922905;-74
2022/06/14 01:08:22;;;;;;;7.48;5.37;;;;;;;21.90;65.32;100272.34;456236;116;922983;-74
2022/06/14 01:09:29;;;;;;;6.83;6.28;;;;;;;21.88;65.31;100274.61;457154;116;923485;-74
2022/06/14 01:10:33;;;;;;;7.27;6.29;;;;;;;21.86;65.26;100283.23;457002;116;922597;-74
2022/06/14 01:11:43;;;;;;;6.28;5.69;;;;;;;21.81;65.11;100269.41;457255;114;922522;-75
2022/06/14 01:12:49;;;;;;;8.05;6.14;;;;;;;21.81;65.11;100269.41;463464;113;930586;-75
2022/06/14 01:13:53;;;;;;;7.11;5.96;;;;;;;21.83;65.26;100271.91;468261;112;922597;-74
2022/06/14 01:15:05;;;;;;;6.50;5.89;;;;;;;21.81;65.25;100272.19;470404;112;922506;-74
2022/06/14 01:16:11;;;;;;;6.36;5.64;;;;;;;21.81;65.30;100272.19;457745;112;923416;-75
2022/06/14 01:17:14;;;;;;;6.37;5.77;;;;;;;21.80;65.35;100273.31;457176;115;923144;-75
2022/06/14 01:18:18;;;;;;;6.74;6.15;;;;;;;21.82;65.40;100273.02;457326;116;922610;-75
2022/06/14 01:19:24;;;;;;;6.29;5.79;;;;;;;21.80;65.49;100276.08;462597;113;922869;-75
2022/06/14 01:20:27;;;;;;;6.96;6.39;;;;;;;21.82;65.51;100267.47;463959;114;922994;-75
2022/06/14 01:21:30;;;;;;;6.03;5.59;;;;;;;21.82;65.56;100275.80;465359;113;922547;-75
2022/06/14 01:22:34;;;;;;;6.31;5.72;;;;;;;21.82;65.52;100276.62;465435;113;922667;-75
2022/06/14 01:23:37;;;;;;;6.44;5.90;;;;;;;21.83;65.45;100274.68;465419;114;922532;-75
2022/06/14 01:24:42;;;;;;;6.78;5.83;;;;;;;21.82;65.36;100273.02;465462;114;922569;-75
2022/06/14 01:25:51;;;;;;;6.33;5.77;;;;;;;21.80;65.32;100281.64;465311;114;922531;-75
2022/06/14 01:26:55;;;;;;;6.18;5.58;;;;;;;21.80;65.31;100275.25;465256;114;922575;-75
2022/06/14 01:28:01;;;;;;;7.11;6.52;;;;;;;21.77;65.33;100273.91;465280;114;923086;-75
2022/06/14 01:29:05;;;;;;;6.70;6.14;;;;;;;21.74;65.33;100276.44;465301;114;922582;-74
2022/06/14 01:30:16;;;;;;;6.98;6.10;;;;;;;21.72;65.34;100273.15;464818;114;922782;-73
2022/06/14 01:31:21;;;;;;;6.39;5.66;;;;;;;21.69;65.35;100274.55;465235;114;930486;-73
2022/06/14 01:32:28;;;;;;;7.69;5.96;;;;;;;21.67;65.43;100274.02;465233;113;923006;-73
2022/06/14 01:33:38;;;;;;;6.61;5.54;;;;;;;21.66;65.50;100275.16;465288;114;922608;-74
2022/06/14 01:34:45;;;;;;;6.11;5.50;;;;;;;21.63;65.59;100271.02;457220;116;922774;-73
2022/06/14 01:35:54;;;;;;;6.79;5.44;;;;;;;21.62;65.65;100268.52;456803;116;922965;-73
2022/06/14 01:36:59;;;;;;;5.28;4.76;;;;;;;21.59;65.66;100271.91;456896;115;922624;-74
2022/06/14 01:38:06;;;;;;;5.16;4.78;;;;;;;21.57;65.70;100276.91;457259;116;922557;-74
2022/06/14 01:39:12;;;;;;;5.20;4.84;;;;;;;21.53;65.80;100268.36;457204;116;922709;-74
2022/06/14 01:40:16;;;;;;;4.86;4.49;;;;;;;21.52;65.83;100274.20;457200;116;923504;-74
2022/06/14 01:41:31;;;;;;;7.79;5.17;;;;;;;21.50;65.85;100270.91;457325;116;923068;-74
2022/06/14 01:42:47;;;;;;;5.01;4.57;;;;;;;21.49;65.87;100278.41;457225;116;922551;-73
2022/06/14 01:44:14;;;;;;;4.94;4.52;;;;;;;21.48;65.93;100278.69;456658;116;922551;-73
2022/06/14 01:45:24;;;;;;;5.26;4.64;;;;;;;21.46;66.03;100275.38;457215;116;922559;-74
2022/06/14 01:46:30;;;;;;;6.44;4.51;;;;;;;21.43;66.20;100274.03;457233;116;922996;-74
2022/06/14 01:47:49;;;;;;;5.46;4.96;;;;;;;21.42;66.33;100275.14;457194;115;923066;-73
2022/06/14 01:52:28;;;;;;;6.41;5.20;;;;;;;21.42;66.69;100275.14;457180;115;922912;-74
2022/06/14 01:53:34;;;;;;;8.07;5.05;;;;;;;21.42;66.81;100280.69;449147;116;923126;-74
2022/06/14 01:55:07;;;;;;;5.34;4.88;;;;;;;21.44;66.80;100278.46;457215;116;922567;-74
2022/06/14 01:56:17;;;;;;;5.52;5.02;;;;;;;21.45;66.72;100274.54;457206;116;923010;-74
2022/06/14 01:57:44;;;;;;;5.82;5.29;;;;;;;21.44;66.57;100283.18;457068;116;922506;-74
2022/06/14 01:59:05;;;;;;;5.81;5.30;;;;;;;21.42;66.50;100280.69;457206;116;922704;-74
2022/06/14 02:00:12;;;;;;;5.00;4.63;;;;;;;21.40;66.42;100282.09;457281;116;922513;-74
2022/06/14 02:01:28;;;;;;;5.86;5.35;;;;;;;21.37;66.47;100279.92;457290;116;922893;-74
2022/06/14 02:02:35;;;;;;;5.98;5.33;;;;;;;21.34;66.58;100281.31;456764;115;923184;-74
2022/06/14 02:05:25;;;;;;;5.92;5.43;;;;;;;21.33;66.80;100293.55;457207;116;922507;-74
2022/06/14 02:06:51;;;;;;;6.47;5.47;;;;;;;21.33;66.90;100298.27;456404;116;923195;-73
2022/06/14 02:08:03;;;;;;;5.88;5.38;;;;;;;21.33;66.99;100292.73;457238;116;922589;-74
2022/06/14 02:09:10;;;;;;;6.16;5.54;;;;;;;21.33;66.96;100296.33;462665;114;923009;-73
2022/06/14 02:10:49;;;;;;;5.63;5.23;;;;;;;21.32;66.92;100297.44;464197;114;922530;-74
2022/06/14 02:11:54;;;;;;;6.06;5.56;;;;;;;21.31;66.89;100303.27;461441;114;922559;-74
2022/06/14 02:13:01;;;;;;;6.60;5.53;;;;;;;21.29;66.90;100305.50;457132;116;922528;-73
2022/06/14 02:14:19;;;;;;;5.96;5.48;;;;;;;21.28;66.90;100304.67;457075;116;922577;-74
2022/06/14 02:15:27;;;;;;;6.17;5.67;;;;;;;21.27;66.82;100300.27;457136;114;923562;-74
2022/06/14 02:16:45;;;;;;;8.98;5.76;;;;;;;21.27;66.85;100302.21;457081;116;923047;-74
2022/06/14 02:18:07;;;;;;;6.06;5.06;;;;;;;21.26;66.97;100298.61;457126;116;922548;-74
2022/06/14 02:19:14;;;;;;;6.43;5.04;;;;;;;21.26;67.17;100295.84;457155;116;922588;-73
2022/06/14 02:20:28;;;;;;;8.15;5.52;;;;;;;21.38;67.33;100299.05;477096;110;946841;-73
2022/06/14 02:21:38;;;;;;;5.93;5.43;;;;;;;21.30;67.39;100305.22;465410;113;922940;-74
2022/06/14 02:22:45;;;;;;;5.83;5.27;;;;;;;21.34;67.48;100297.13;456661;115;922590;-74
2022/06/14 02:23:54;;;;;;;6.26;5.35;;;;;;;21.37;67.52;100302.11;457273;116;922548;-74
2022/06/14 02:25:14;;;;;;;6.00;5.09;;;;;;;21.52;67.60;100299.16;477014;110;946838;-73
2022/06/14 02:26:29;;;;;;;7.03;6.04;;;;;;;21.45;67.58;100295.91;465423;114;923139;-74
2022/06/14 02:27:39;;;;;;;6.68;5.98;;;;;;;21.47;67.58;100297.28;457857;113;922857;-73
2022/06/14 02:28:48;;;;;;;5.68;5.21;;;;;;;21.52;67.54;100294.44;457342;116;922741;-75
2022/06/14 02:30:01;;;;;;;5.83;5.23;;;;;;;21.55;67.45;100298.59;457600;115;922756;-74
2022/06/14 02:31:11;;;;;;;7.08;5.11;;;;;;;21.56;67.33;100306.59;456944;115;922605;-74
2022/06/14 02:32:26;;;;;;;7.95;5.65;;;;;;;21.57;67.33;100307.43;447843;116;923169;-74
2022/06/14 02:33:40;;;;;;;6.46;5.71;;;;;;;21.67;67.20;100307.31;476847;110;1204354;-74
2022/06/14 02:34:55;;;;;;;8.73;5.90;;;;;;;21.56;67.14;100303.00;465372;114;922601;-74
2022/06/14 02:36:02;;;;;;;5.84;5.24;;;;;;;21.57;67.12;100301.87;465314;114;923175;-74
2022/06/14 02:37:14;;;;;;;7.07;5.64;;;;;;;21.59;67.18;100302.42;465276;114;922634;-74
2022/06/14 02:38:28;;;;;;;5.45;4.91;;;;;;;21.73;67.34;100313.62;482442;110;946814;-73
2022/06/14 02:39:35;;;;;;;6.23;5.30;;;;;;;21.66;67.47;100307.63;471228;112;923098;-74
2022/06/14 02:40:42;;;;;;;6.16;5.36;;;;;;;21.67;67.55;100310.09;464912;114;922553;-75
2022/06/14 02:42:10;;;;;;;8.13;5.62;;;;;;;21.70;67.61;100309.52;466252;112;922552;-74
2022/06/14 02:43:36;;;;;;;6.68;5.57;;;;;;;21.73;67.50;100308.08;457379;114;922606;-74
2022/06/14 02:44:55;;;;;;;7.44;5.90;;;;;;;21.74;67.35;100309.73;465402;114;922888;-74
2022/06/14 02:46:04;;;;;;;7.41;5.75;;;;;;;21.74;67.24;100309.73;458876;114;922933;-74
2022/06/14 02:47:29;;;;;;;5.82;5.22;;;;;;;21.74;67.23;100315.29;459157;114;922585;-74
2022/06/14 02:48:48;;;;;;;6.63;5.98;;;;;;;21.77;67.34;100320.27;464927;114;923099;-73
2022/06/14 02:49:57;;;;;;;7.65;6.66;;;;;;;21.80;67.35;100311.34;465297;114;923352;-74
2022/06/14 02:51:04;;;;;;;7.77;6.88;;;;;;;21.84;67.33;100320.72;465147;114;923102;-74
2022/06/14 02:52:16;;;;;;;8.95;7.69;;;;;;;21.88;67.18;100317.08;465227;114;922486;-73
2022/06/14 02:53:23;;;;;;;14.32;8.17;;;;;;;21.90;66.98;100317.59;465243;114;922597;-73
2022/06/14 02:54:30;;;;;;;7.91;7.21;;;;;;;21.95;66.84;100311.17;465291;114;922913;-73
2022/06/14 02:55:38;;;;;;;8.37;7.63;;;;;;;21.98;66.67;100322.53;465242;114;923075;-74
2022/06/14 02:56:48;;;;;;;7.82;7.04;;;;;;;22.01;66.66;100310.82;465285;114;922615;-73
2022/06/14 02:57:54;;;;;;;7.46;6.73;;;;;;;22.07;66.56;100319.08;460977;114;923033;-74
2022/06/14 02:59:13;;;;;;;8.01;6.86;;;;;;;22.12;66.50;100316.23;452132;116;923023;-75
2022/06/14 03:00:21;;;;;;;7.73;6.90;;;;;;;22.17;66.40;100327.28;457732;116;922951;-74
2022/06/14 03:01:30;;;;;;;8.17;7.24;;;;;;;22.20;66.22;100321.14;457170;116;922637;-73
2022/06/14 03:02:41;;;;;;;7.41;6.76;;;;;;;22.23;66.12;100320.53;457547;114;922704;-73
2022/06/14 03:03:53;;;;;;;10.98;6.84;;;;;;;22.24;66.09;100323.02;457159;116;922513;-74
2022/06/14 03:05:06;;;;;;;7.91;7.07;;;;;;;22.26;66.07;100329.11;454500;114;922652;-74
2022/06/14 03:06:13;;;;;;;7.02;6.29;;;;;;;22.29;66.06;100330.45;455127;116;922536;-74
2022/06/14 03:07:22;;;;;;;7.73;6.24;;;;;;;22.32;65.98;100332.65;454791;116;922649;-74
2022/06/14 03:08:43;;;;;;;8.74;6.53;;;;;;;22.34;65.88;100327.60;455143;116;922502;-74
2022/06/14 03:09:48;;;;;;;7.13;6.43;;;;;;;22.36;65.76;100330.92;454202;116;922911;-75
2022/06/14 03:11:28;;;;;;;6.71;6.07;;;;;;;22.38;65.66;100335.03;455172;116;922940;-73
2022/06/14 03:12:50;;;;;;;7.92;7.04;;;;;;;22.41;65.60;100336.41;457546;116;923059;-74
2022/06/14 03:14:19;;;;;;;7.92;7.14;;;;;;;22.44;65.45;100335.79;457005;116;922634;-74
2022/06/14 03:15:43;;;;;;;7.96;6.88;;;;;;;22.46;65.30;100330.77;457318;116;922562;-74
2022/06/14 03:17:25;;;;;;;7.24;6.55;;;;;;;22.47;65.18;100332.44;457301;116;922653;-74
2022/06/14 03:18:49;;;;;;;9.56;7.45;;;;;;;22.47;65.10;100324.09;456925;116;922642;-74
2022/06/14 03:20:15;;;;;;;7.29;6.63;;;;;;;22.47;65.08;100324.09;457326;116;923030;-74
2022/06/14 03:21:22;;;;;;;8.25;7.61;;;;;;;22.48;65.00;100325.75;456037;116;922601;-75
2022/06/14 03:22:30;;;;;;;9.02;8.26;;;;;;;22.49;64.98;100324.64;456357;116;922558;-74
2022/06/14 03:23:40;;;;;;;10.34;9.42;;;;;;;22.49;64.90;100330.19;456076;116;923106;-74
2022/06/14 03:25:04;;;;;;;11.28;9.54;;;;;;;22.49;64.88;100327.41;456769;116;922606;-74
2022/06/14 03:26:29;;;;;;;10.66;9.74;;;;;;;22.52;64.82;100325.97;456648;116;922617;-74
2022/06/14 03:27:45;;;;;;;10.78;9.43;;;;;;;22.52;64.78;100329.58;456143;116;922791;-74
2022/06/14 03:28:54;;;;;;;12.68;11.58;;;;;;;22.55;64.75;100323.41;457045;116;922596;-73
2022/06/14 03:30:04;;;;;;;15.01;13.32;;;;;;;22.54;64.73;100324.56;461023;114;922905;-74
2022/06/14 03:31:25;;;;;;;22.69;15.72;;;;;;;22.56;64.63;100321.45;464022;114;922564;-73
2022/06/14 03:32:32;;;;;;;17.19;15.55;;;;;;;22.55;64.56;100323.41;463986;112;922576;-73
2022/06/14 03:33:48;;;;;;;17.89;15.82;;;;;;;22.56;64.47;100322.28;464028;111;922775;-74
2022/06/14 03:34:54;;;;;;;17.88;15.56;;;;;;;22.58;64.44;100324.77;465335;114;923207;-73
2022/06/14 03:35:59;;;;;;;18.01;16.32;;;;;;;22.57;64.36;100323.11;465226;114;922919;-73
2022/06/14 03:37:02;;;;;;;16.37;15.00;;;;;;;22.59;64.31;100326.43;465381;112;923082;-74
2022/06/14 03:38:12;;;;;;;16.98;15.29;;;;;;;22.58;64.24;100319.22;464651;114;922755;-74
2022/06/14 03:39:18;;;;;;;15.41;14.15;;;;;;;22.59;64.19;100316.14;452002;114;922816;-73
2022/06/14 03:40:23;;;;;;;16.85;15.03;;;;;;;22.59;64.24;100313.36;462616;114;922540;-74
2022/06/14 03:41:30;;;;;;;18.88;15.54;;;;;;;22.60;64.20;100315.02;462633;114;922526;-72
2022/06/14 03:42:34;;;;;;;16.82;15.06;;;;;;;22.62;64.22;100314.70;453837;116;930617;-74
2022/06/14 03:43:38;;;;;;;16.98;15.40;;;;;;;22.63;64.25;100311.63;454318;114;922629;-75
2022/06/14 03:44:43;;;;;;;19.61;15.84;;;;;;;22.64;64.29;100316.06;462759;114;922642;-74
2022/06/14 03:46:00;;;;;;;19.53;17.17;;;;;;;22.67;64.26;100317.39;462588;114;923084;-75
2022/06/14 03:47:25;;;;;;;19.55;17.39;;;;;;;22.70;64.35;100311.25;462620;114;922734;-73
2022/06/14 03:48:30;;;;;;;19.88;17.01;;;;;;;22.72;64.24;100320.12;462059;114;922586;-74
2022/06/14 03:49:33;;;;;;;18.17;15.84;;;;;;;22.73;64.19;100308.72;462573;114;922544;-73
2022/06/14 03:50:39;;;;;;;18.40;16.29;;;;;;;22.75;64.20;100319.54;462714;114;922569;-74
2022/06/14 03:52:01;;;;;;;17.73;16.17;;;;;;;22.75;64.13;100317.59;462139;114;923032;-74
2022/06/14 03:53:08;;;;;;;19.19;15.37;;;;;;;22.76;64.06;100310.91;461827;114;922632;-73
2022/06/14 03:54:36;;;;;;;17.50;15.90;;;;;;;22.76;64.02;100319.25;461800;114;923017;-74
2022/06/14 03:55:54;;;;;;;17.92;16.04;;;;;;;22.76;64.07;100318.42;434059;122;923174;-74
2022/06/14 03:57:17;;;;;;;18.74;16.76;;;;;;;22.75;64.20;100325.93;434068;122;923363;-73
2022/06/14 03:58:43;;;;;;;20.22;18.26;;;;;;;22.75;64.24;100325.93;436947;116;923125;-73
2022/06/14 03:59:53;;;;;;;20.36;18.28;;;;;;;22.75;64.30;100325.93;454509;116;922930;-74
2022/06/14 04:00:59;;;;;;;23.12;18.70;;;;;;;22.75;64.33;100328.71;454302;114;922622;-74
2022/06/14 04:02:12;;;;;;;23.30;20.37;;;;;;;22.75;64.37;100325.93;450482;117;923283;-73
2022/06/14 04:03:22;;;;;;;25.53;22.72;;;;;;;22.75;64.35;100322.32;441860;120;922752;-74
2022/06/14 04:04:39;;;;;;;27.59;24.33;;;;;;;22.85;64.31;100322.16;482422;110;947117;-73
2022/06/14 04:05:46;;;;;;;29.30;25.62;;;;;;;22.74;64.32;100312.33;473815;112;922615;-73
2022/06/14 04:06:58;;;;;;;30.41;26.29;;;;;;;22.74;64.22;100321.49;472495;112;922551;-75
2022/06/14 04:08:23;;;;;;;32.62;25.80;;;;;;;22.74;64.16;100320.66;462435;114;922619;-73
2022/06/14 04:09:47;;;;;;;36.06;25.89;;;;;;;22.74;64.12;100324.27;464317;114;922629;-75
2022/06/14 04:11:11;;;;;;;32.01;25.43;;;;;;;22.74;64.13;100318.72;465416;114;923465;-74
2022/06/14 04:12:45;;;;;;;35.41;26.04;;;;;;;22.75;64.10;100320.38;465322;113;922968;-72
2022/06/14 04:13:59;;;;;;;29.79;24.90;;;;;;;22.86;64.07;100324.64;477096;110;947223;-74
2022/06/14 04:15:21;;;;;;;32.55;25.21;;;;;;;22.76;64.04;100321.20;465413;114;922891;-75
2022/06/14 04:16:37;;;;;;;25.94;23.57;;;;;;;22.75;64.01;100313.98;465337;113;922825;-74
2022/06/14 04:17:43;;;;;;;28.69;24.77;;;;;;;22.76;63.97;100318.42;457270;115;923161;-74
2022/06/14 04:18:50;;;;;;;29.80;26.67;;;;;;;22.75;63.97;100320.38;457281;115;922667;-75
2022/06/14 04:20:23;;;;;;;34.88;25.92;;;;;;;22.76;63.96;100315.64;457267;115;923408;-74
2022/06/14 04:21:42;;;;;;;31.55;25.83;;;;;;;22.76;63.94;100321.20;457306;116;923059;-74
2022/06/14 04:22:55;;;;;;;34.35;26.02;;;;;;;22.76;63.92;100319.25;457319;116;922631;-74
2022/06/14 04:24:27;;;;;;;31.43;26.04;;;;;;;22.77;63.85;100315.31;457303;115;923482;-74
2022/06/14 04:25:46;;;;;;;32.89;24.63;;;;;;;22.78;63.82;100322.53;457330;116;922547;-74
2022/06/14 04:26:56;;;;;;;32.17;24.64;;;;;;;22.79;63.70;100321.41;457248;115;922600;-73
2022/06/14 04:28:14;;;;;;;29.06;24.30;;;;;;;22.80;63.54;100317.51;457270;115;922589;-74
2022/06/14 04:29:37;;;;;;;37.45;26.06;;;;;;;22.81;63.46;100319.16;441958;119;923755;-73
2022/06/14 04:30:53;;;;;;;31.66;24.05;;;;;;;22.95;63.40;100321.16;482381;110;947205;-74
2022/06/14 04:32:17;;;;;;;38.18;25.26;;;;;;;22.82;63.49;100314.44;471656;112;922591;-74
2022/06/14 04:33:40;;;;;;;31.32;24.45;;;;;;;22.94;63.53;100311.16;477023;110;947206;-74
2022/06/14 04:34:52;;;;;;;30.74;25.62;;;;;;;22.83;63.52;100316.06;455443;116;922769;-73
2022/06/14 04:36:15;;;;;;;;;;;;;;;22.84;63.67;100315.77;460642;114;922375;-75
2022/06/14 04:37:31;;;;;;;31.55;24.88;;;;;;;22.85;63.72;100317.42;451190;116;922478;-74
2022/06/14 04:38:40;;;;;;;26.78;24.08;;;;;;;22.84;63.77;100312.16;448626;118;930539;-74
2022/06/14 04:39:46;;;;;;;29.07;24.61;;;;;;;22.84;63.78;100310.20;448106;118;922513;-73
2022/06/14 04:40:56;;;;;;;32.22;24.38;;;;;;;22.87;63.54;100306.01;448142;118;922588;-75
2022/06/14 04:42:09;;;;;;;33.26;25.31;;;;;;;22.88;63.28;100308.47;448266;118;922567;-75
2022/06/14 04:43:16;;;;;;;25.28;22.82;;;;;;;22.91;63.12;100314.56;448628;118;922932;-74
2022/06/14 04:44:26;;;;;;;28.69;24.31;;;;;;;22.93;62.83;100312.31;448677;118;923069;-73
2022/06/14 04:45:41;;;;;;;33.37;25.27;;;;;;;22.94;62.67;100311.16;448104;118;922642;-73
2022/06/14 04:46:48;;;;;;;30.62;23.77;;;;;;;22.96;62.59;100308.91;448652;118;922585;-73
2022/06/14 04:48:04;;;;;;;27.98;24.27;;;;;;;22.98;62.55;100304.71;448414;118;923070;-73
2022/06/14 04:49:20;;;;;;;25.81;22.57;;;;;;;23.01;62.53;100308.83;448704;118;922898;-74
2022/06/14 04:50:30;;;;;;;30.54;23.77;;;;;;;23.03;62.42;100303.80;448538;118;922816;-74
2022/06/14 04:51:39;;;;;;;28.25;22.27;;;;;;;23.05;62.45;100305.13;448160;118;922571;-73
2022/06/14 04:52:55;;;;;;;22.55;20.12;;;;;;;23.08;62.44;100304.53;448341;118;922563;-73
2022/06/14 04:54:02;;;;;;;25.13;22.36;;;;;;;23.10;62.50;100310.59;448659;118;922621;-73
2022/06/14 04:55:17;;;;;;;31.38;21.93;;;;;;;23.13;62.43;100303.61;448295;118;922591;-74
2022/06/14 04:56:26;;;;;;;27.93;21.91;;;;;;;23.15;62.43;100302.20;448661;118;923044;-74
2022/06/14 04:57:43;;;;;;;25.38;21.77;;;;;;;23.18;62.45;100306.30;450160;116;922709;-74
2022/06/14 04:58:56;;;;;;;23.46;21.02;;;;;;;23.20;62.35;100307.67;453196;117;923031;-74
2022/06/14 05:00:03;;;;;;;23.55;20.44;;;;;;;23.23;62.24;100307.05;453212;117;922607;-74
2022/06/14 05:01:21;;;;;;;23.33;20.33;;;;;;;23.25;62.14;100306.74;453275;117;922628;-73
2022/06/14 05:02:31;;;;;;;23.54;19.87;;;;;;;23.26;61.96;100300.05;453262;117;922574;-74
2022/06/14 05:03:40;;;;;;;25.39;19.89;;;;;;;23.29;61.58;100308.61;453246;117;923079;-74
2022/06/14 05:04:50;;;;;;;20.87;18.75;;;;;;;23.32;61.20;100309.13;453283;117;922634;-75
2022/06/14 05:05:59;;;;;;;21.48;19.07;;;;;;;23.34;60.94;100307.68;444099;119;922753;-74
2022/06/14 05:07:12;;;;;;;22.02;17.46;;;;;;;23.37;60.65;100314.61;445475;117;922981;-74
2022/06/14 05:08:19;;;;;;;19.00;16.61;;;;;;;23.39;60.31;100310.37;453248;117;922863;-74
2022/06/14 05:09:25;;;;;;;20.64;16.77;;;;;;;23.40;59.70;100314.80;453220;117;922615;-74
2022/06/14 05:10:41;;;;;;;19.52;15.68;;;;;;;23.43;59.16;100316.16;453080;117;922647;-74
2022/06/14 05:11:56;;;;;;;19.28;16.54;;;;;;;23.43;58.49;100313.38;456681;114;923566;-74
2022/06/14 05:13:18;;;;;;;16.53;14.74;;;;;;;23.44;57.99;100312.23;465563;114;922601;-74
2022/06/14 05:14:35;;;;;;;15.72;14.09;;;;;;;23.57;57.58;100305.90;477129;110;947195;-72
2022/06/14 05:15:50;;;;;;;20.85;15.70;;;;;;;23.47;57.30;100306.09;465359;114;922618;-74
2022/06/14 05:17:09;;;;;;;17.74;14.87;;;;;;;23.48;57.11;100304.97;463249;113;922594;-74
2022/06/14 05:18:15;;;;;;;15.17;13.76;;;;;;;23.48;56.88;100311.36;457294;116;923272;-74
2022/06/14 05:19:31;;;;;;;16.42;14.49;;;;;;;23.50;56.69;100314.64;457024;115;922646;-75
2022/06/14 05:20:44;;;;;;;16.88;14.38;;;;;;;23.50;56.25;100311.86;457281;115;923039;-75
2022/06/14 05:21:53;;;;;;;17.08;14.18;;;;;;;23.51;55.95;100302.39;457295;114;922593;-74
2022/06/14 05:23:00;;;;;;;15.56;14.06;;;;;;;23.54;55.94;100312.09;455218;116;922764;-75
2022/06/14 05:24:05;;;;;;;15.68;14.21;;;;;;;23.56;55.59;100312.59;457165;115;922694;-74
2022/06/14 05:25:11;;;;;;;17.35;13.47;;;;;;;23.57;55.32;100309.51;457315;116;922620;-74
2022/06/14 05:26:33;;;;;;;15.26;13.43;;;;;;;23.59;55.12;100303.64;457312;116;922845;-75
2022/06/14 05:27:49;;;;;;;13.43;12.13;;;;;;;23.62;54.83;100306.62;457263;114;922562;-75
2022/06/14 05:29:04;;;;;;;14.09;12.58;;;;;;;23.63;54.73;100299.93;457281;116;922935;-75
2022/06/14 05:30:11;;;;;;;13.78;12.22;;;;;;;23.66;54.72;100304.87;456954;115;922570;-75
2022/06/14 05:31:18;;;;;;;18.55;12.27;;;;;;;23.69;54.60;100297.87;457358;116;922637;-74
2022/06/14 05:32:28;;;;;;;14.33;12.79;;;;;;;23.71;54.48;100301.16;452029;113;922640;-74